Terminal Aerodrome Forecast
Issued by NWS Missoula, MT

Current Version | Previous Version | Text Only | Print | Product List | Glossary On
Versions: 1 2 3 4 5 6 7 8 9 10 11 12 13 14 15 16 17 18 19 20
000
FTUS45 KMSO 301120
TAFGPI
TAF
KGPI 301120Z 3012/3112 18006KT P6SM FEW200
     FM301800 19008KT P6SM FEW200
     FM302000 21010G15KT P6SM SCT200
     FM310100 VRB04KT P6SM SCT200=

USA.gov is the U.S. government's official web portal to all federal, state and local government web resources and services.